Time;durP1;ratioP1;P1;durP2;ratioP2;P2;SDS_P1;SDS_P2;PMS_P1;PMS_P2;Temp;Humidity;BMP_temperature;BMP_pressure;BME280_temperature;BME280_humidity;BME280_pressure;Samples;Min_cycle;Max_cycle;Signal;HPM_P1;HPM_P2
2022/11/27 00:01:29;;;;;;;18.92;11.52;;;;;;;-4.97;78.14;101165.25;5034964;28;20060;-75
2022/11/27 00:03:54;;;;;;;16.58;10.18;;;;;;;-4.97;78.14;101175.66;5028404;28;20044;-72
2022/11/27 00:06:22;;;;;;;22.48;11.13;;;;;;;-4.86;78.38;101179.28;5040136;28;20028;-73
2022/11/27 00:08:47;;;;;;;22.35;11.82;;;;;;;-4.80;78.06;101176.75;5056689;28;20051;-73
2022/11/27 00:11:15;;;;;;;20.33;11.60;;;;;;;-4.87;77.89;101177.53;5059314;28;20482;-71
2022/11/27 00:13:40;;;;;;;19.75;11.32;;;;;;;-4.98;77.83;101167.81;5027863;28;20077;-73
2022/11/27 00:16:05;;;;;;;22.52;12.55;;;;;;;-4.89;77.22;101168.81;5059451;28;20061;-74
2022/11/27 00:18:29;;;;;;;19.25;11.70;;;;;;;-5.01;78.41;101168.63;5037548;28;20602;-73
2022/11/27 00:20:54;;;;;;;13.02;7.60;;;;;;;-4.92;77.93;101168.78;5039895;28;20603;-71
2022/11/27 00:23:19;;;;;;;17.48;9.60;;;;;;;-4.98;78.23;101173.88;5041184;28;20070;-75
2022/11/27 00:25:53;;;;;;;18.65;10.70;;;;;;;-4.88;78.05;101170.56;5039022;28;20571;-73
2022/11/27 00:28:19;;;;;;;17.63;9.63;;;;;;;-4.88;77.55;101175.78;5038377;28;20078;-69
2022/11/27 00:30:43;;;;;;;20.65;11.05;;;;;;;-4.87;77.71;101177.53;5038307;28;20036;-75
2022/11/27 00:33:08;;;;;;;14.10;8.73;;;;;;;-4.91;77.69;101172.25;5064188;28;20130;-77
2022/11/27 00:35:33;;;;;;;20.45;11.02;;;;;;;-4.94;78.19;101175.66;5060418;28;20044;-71
2022/11/27 00:37:57;;;;;;;22.48;11.63;;;;;;;-4.96;78.62;101171.28;5039543;28;20097;-74
2022/11/27 00:40:22;;;;;;;21.27;11.25;;;;;;;-4.94;78.74;101173.06;5045106;28;20047;-74
2022/11/27 00:42:46;;;;;;;20.75;9.48;;;;;;;-4.71;78.25;101170.81;5039435;28;20055;-72
2022/11/27 00:45:11;;;;;;;18.52;10.82;;;;;;;-4.84;78.07;101168.88;5038231;28;20132;-72
2022/11/27 00:47:36;;;;;;;12.55;5.45;;;;;;;-4.72;78.30;101173.38;5039125;28;20196;-70
2022/11/27 00:50:00;;;;;;;19.02;10.57;;;;;;;-4.74;77.60;101172.50;5037912;28;20459;-72
2022/11/27 00:52:25;;;;;;;13.70;6.53;;;;;;;-4.76;77.66;101175.97;5055755;28;20039;-74
2022/11/27 00:54:50;;;;;;;21.35;11.38;;;;;;;-4.92;77.50;101173.97;5039624;28;20038;-69
2022/11/27 00:57:14;;;;;;;17.17;9.93;;;;;;;-4.91;77.94;101177.44;5072531;28;20047;-68
2022/11/27 00:59:39;;;;;;;21.42;10.98;;;;;;;-4.96;77.93;101164.34;5090827;28;20035;-71
2022/11/27 01:02:04;;;;;;;16.52;10.15;;;;;;;-4.97;78.06;101169.56;5076961;28;20036;-65
2022/11/27 01:04:29;;;;;;;17.55;10.35;;;;;;;-4.96;78.35;101172.16;5051974;28;20059;-72
2022/11/27 01:06:53;;;;;;;23.63;11.50;;;;;;;-4.85;78.29;101170.59;5043210;28;20390;-71
2022/11/27 01:09:18;;;;;;;19.70;11.43;;;;;;;-4.91;78.73;101178.31;5058507;28;20761;-71
2022/11/27 01:11:43;;;;;;;19.15;10.10;;;;;;;-4.90;78.67;101164.47;5039691;28;20525;-72
2022/11/27 01:14:12;;;;;;;15.82;8.85;;;;;;;-4.83;78.39;101168.91;5039883;28;20600;-72
2022/11/27 01:16:37;;;;;;;15.05;7.60;;;;;;;-4.81;78.55;101161.13;5058118;28;20063;-72
2022/11/27 01:19:02;;;;;;;17.92;10.15;;;;;;;-4.86;78.61;101168.88;5057855;28;20113;-71
2022/11/27 01:21:31;;;;;;;20.05;11.55;;;;;;;-4.81;78.04;101166.31;5037506;28;20051;-73
2022/11/27 01:23:56;;;;;;;19.48;10.40;;;;;;;-4.83;78.37;101174.09;5073501;28;20047;-67
2022/11/27 01:26:21;;;;;;;14.10;9.52;;;;;;;-4.87;78.51;101164.53;5020113;28;20036;-68
2022/11/27 01:28:45;;;;;;;15.30;9.80;;;;;;;-4.87;79.04;101169.72;5037229;28;20040;-73
2022/11/27 01:31:16;;;;;;;17.10;10.65;;;;;;;-4.86;78.64;101168.88;5056968;28;20055;-72
2022/11/27 01:33:45;;;;;;;16.83;7.57;;;;;;;-4.83;78.96;101166.31;5057475;28;20120;-74
2022/11/27 01:36:11;;;;;;;11.90;6.43;;;;;;;-4.51;78.51;101161.56;5038022;28;20036;-70
2022/11/27 01:38:36;;;;;;;16.60;9.07;;;;;;;-4.69;77.04;101165.63;5055165;28;20116;-71
2022/11/27 01:41:07;;;;;;;16.80;8.57;;;;;;;-4.74;77.85;101169.91;5019766;28;20134;-69
2022/11/27 01:43:51;;;;;;;19.48;11.18;;;;;;;-4.85;78.19;101170.59;5046156;28;20044;-68
2022/11/27 01:46:45;;;;;;;10.55;6.63;;;;;;;-4.80;78.53;101179.34;5041704;28;20047;-65
2022/11/27 01:49:37;;;;;;;17.98;10.45;;;;;;;-4.80;77.73;101175.88;5052198;28;20043;-66
2022/11/27 01:52:08;;;;;;;11.15;6.63;;;;;;;-4.81;78.62;101175.00;5042670;28;20039;-67
2022/11/27 01:54:44;;;;;;;18.55;9.60;;;;;;;-4.79;78.55;101167.22;5040523;28;20044;-66
2022/11/27 01:57:15;;;;;;;20.73;10.73;;;;;;;-4.87;78.71;101172.31;5054678;28;20046;-63
2022/11/27 01:59:40;;;;;;;11.35;5.97;;;;;;;-4.80;78.66;101176.75;5036326;28;20051;-65
2022/11/27 02:02:05;;;;;;;17.85;9.57;;;;;;;-4.86;79.04;101171.47;5054385;28;20387;-63
2022/11/27 02:04:30;;;;;;;15.82;8.38;;;;;;;-4.80;78.85;101170.69;5054380;28;20401;-66
2022/11/27 02:06:57;;;;;;;18.80;10.68;;;;;;;-4.81;79.34;101177.59;5054452;28;20036;-65
2022/11/27 02:09:22;;;;;;;16.08;9.02;;;;;;;-4.77;79.27;101175.94;5055767;28;20458;-67
2022/11/27 02:12:01;;;;;;;18.50;10.23;;;;;;;-4.73;79.17;101179.44;5054279;28;20511;-65
2022/11/27 02:14:55;;;;;;;18.98;9.00;;;;;;;-4.49;78.71;101188.47;5025610;28;20954;-65
2022/11/27 02:17:39;;;;;;;13.23;7.03;;;;;;;-4.47;78.28;101178.09;5035965;28;20064;-64
2022/11/27 02:20:30;;;;;;;15.82;8.77;;;;;;;-4.62;78.10;101183.06;5031647;28;20131;-65
2022/11/27 02:23:16;;;;;;;17.35;9.18;;;;;;;-4.70;78.23;101182.09;5054704;28;20048;-66
2022/11/27 02:26:18;;;;;;;13.32;7.47;;;;;;;-4.66;78.48;101187.38;5057656;28;20035;-75
2022/11/27 02:28:58;;;;;;;18.00;10.30;;;;;;;-4.72;79.41;101183.78;5056099;28;20043;-68
2022/11/27 02:31:41;;;;;;;16.38;8.05;;;;;;;-4.55;78.47;101180.59;5032042;28;20511;-70
2022/11/27 02:34:13;;;;;;;19.20;9.63;;;;;;;-4.48;78.50;101186.75;5050510;28;20044;-73
2022/11/27 02:36:42;;;;;;;21.13;10.73;;;;;;;-4.69;77.67;101189.94;5057803;28;20044;-73
2022/11/27 02:39:13;;;;;;;18.67;10.20;;;;;;;-4.77;78.69;101187.22;5056326;28;20035;-69
2022/11/27 02:41:52;;;;;;;17.27;9.88;;;;;;;-4.79;79.02;101185.44;5048845;28;20051;-71
2022/11/27 02:44:22;;;;;;;19.63;10.15;;;;;;;-4.80;79.50;101189.75;5055113;28;20597;-70
2022/11/27 02:46:48;;;;;;;17.55;9.45;;;;;;;-4.74;79.78;101190.72;5039674;28;20132;-68
2022/11/27 02:49:16;;;;;;;19.73;10.18;;;;;;;-4.63;79.29;101194.38;5060225;28;20064;-68
2022/11/27 02:51:47;;;;;;;15.40;6.40;;;;;;;-4.56;79.85;101184.06;5040455;28;20038;-72
2022/11/27 02:54:23;;;;;;;24.17;11.57;;;;;;;-4.49;79.54;101182.41;5058779;28;20070;-71
2022/11/27 02:56:50;;;;;;;21.45;11.13;;;;;;;-4.64;78.87;101190.88;5047858;28;20052;-68
2022/11/27 02:59:17;;;;;;;16.00;8.27;;;;;;;-4.63;79.52;101192.63;5063938;28;20409;-72
2022/11/27 03:01:44;;;;;;;20.98;10.65;;;;;;;-4.63;79.08;101196.97;5042656;28;20551;-73
2022/11/27 03:04:14;;;;;;;19.30;10.52;;;;;;;-4.69;79.16;101187.31;5058746;28;20040;-72
2022/11/27 03:06:46;;;;;;;19.50;10.18;;;;;;;-4.70;79.38;101202.91;5059309;28;20494;-72
2022/11/27 03:09:23;;;;;;;21.38;11.52;;;;;;;-4.69;79.88;101191.66;5059048;28;20050;-69
2022/11/27 03:11:48;;;;;;;17.88;9.05;;;;;;;-4.67;79.94;101203.84;5040661;28;20563;-68
2022/11/27 03:14:14;;;;;;;20.98;11.43;;;;;;;-4.55;79.61;101201.41;5058550;28;20050;-67
2022/11/27 03:16:39;;;;;;;13.05;8.77;;;;;;;-4.45;79.79;101192.00;5055276;28;20176;-66
2022/11/27 03:19:19;;;;;;;20.30;10.02;;;;;;;-4.58;79.27;101192.69;5059523;28;20044;-65
2022/11/27 03:21:49;;;;;;;20.95;10.90;;;;;;;-4.64;79.82;101192.59;5030892;28;20412;-65
2022/11/27 03:24:14;;;;;;;15.82;8.07;;;;;;;-4.61;80.06;101197.84;5033898;28;20054;-65
2022/11/27 03:26:40;;;;;;;10.60;6.25;;;;;;;-4.53;80.07;101204.94;5060319;28;20032;-66
2022/11/27 03:29:11;;;;;;;16.52;8.38;;;;;;;-4.53;79.94;101191.03;5057468;28;20047;-65
2022/11/27 03:31:36;;;;;;;20.55;9.45;;;;;;;-4.54;80.17;101200.56;5039683;28;20410;-65
2022/11/27 03:34:00;;;;;;;16.05;9.77;;;;;;;-4.46;80.27;101201.53;5057365;28;20414;-66
2022/11/27 03:36:25;;;;;;;24.98;11.18;;;;;;;-4.50;80.47;101199.75;5052768;28;20120;-65
2022/11/27 03:38:51;;;;;;;26.17;11.52;;;;;;;-4.36;79.73;101196.47;5057560;28;20039;-67
2022/11/27 03:41:28;;;;;;;16.02;8.80;;;;;;;-4.36;79.71;101202.53;5048382;28;20405;-67
2022/11/27 03:44:34;;;;;;;14.45;8.73;;;;;;;-4.40;79.50;101195.53;5022354;28;20048;-66
2022/11/27 03:47:36;;;;;;;18.27;9.82;;;;;;;-4.42;80.18;101202.47;5057385;28;20559;-65
2022/11/27 03:50:19;;;;;;;17.52;8.98;;;;;;;-4.49;79.97;101191.06;5057052;28;20615;-65
2022/11/27 03:52:59;;;;;;;16.38;9.77;;;;;;;-4.48;80.41;101187.63;5053127;28;20380;-68
2022/11/27 03:55:45;;;;;;;25.05;10.13;;;;;;;-4.45;80.00;101184.19;5056856;28;20054;-66
2022/11/27 03:58:27;;;;;;;20.23;10.73;;;;;;;-4.46;79.98;101191.13;5056583;28;20039;-65
2022/11/27 04:00:53;;;;;;;17.88;9.85;;;;;;;-4.40;79.86;101192.94;5052537;28;20077;-65
2022/11/27 04:03:25;;;;;;;13.93;8.55;;;;;;;-4.33;79.89;101197.38;5056980;28;20169;-66
2022/11/27 04:05:50;;;;;;;15.70;9.02;;;;;;;-4.43;79.86;101190.31;5056297;28;20040;-64
2022/11/27 04:08:15;;;;;;;15.65;9.27;;;;;;;-4.42;79.54;101192.94;5056661;28;20036;-64
2022/11/27 04:10:40;;;;;;;13.45;7.60;;;;;;;-4.43;79.51;101192.91;5031605;28;20044;-64
2022/11/27 04:13:04;;;;;;;15.77;9.13;;;;;;;-4.36;79.56;101197.34;5056195;28;20040;-64
2022/11/27 04:15:29;;;;;;;19.05;9.88;;;;;;;-4.35;79.40;101188.66;5056110;28;20063;-64
2022/11/27 04:17:53;;;;;;;20.80;10.27;;;;;;;-4.33;79.36;101194.78;5056104;28;20071;-64
2022/11/27 04:20:18;;;;;;;14.30;7.95;;;;;;;-4.34;79.95;101189.56;5056315;28;20522;-63
2022/11/27 04:22:42;;;;;;;14.43;7.78;;;;;;;-4.33;79.69;101197.38;5056169;28;20040;-64
2022/11/27 04:25:07;;;;;;;15.40;8.98;;;;;;;-4.37;79.50;101192.97;5070672;28;20047;-64
2022/11/27 04:27:32;;;;;;;16.90;9.05;;;;;;;-4.32;79.86;101199.13;5056545;28;20113;-63
2022/11/27 04:29:57;;;;;;;14.77;8.18;;;;;;;-4.35;79.82;101198.22;5057235;28;20115;-63
2022/11/27 04:32:21;;;;;;;18.63;9.50;;;;;;;-4.32;79.68;101196.53;5056199;28;20058;-64
2022/11/27 04:34:46;;;;;;;11.35;7.40;;;;;;;-4.29;79.68;101191.38;5056182;28;20052;-64
2022/11/27 04:37:11;;;;;;;17.50;8.52;;;;;;;-4.33;79.60;101194.78;5023878;28;20043;-64
2022/11/27 04:39:35;;;;;;;13.90;8.45;;;;;;;-4.16;79.68;101200.19;5055845;28;20044;-65
2022/11/27 04:42:00;;;;;;;16.20;8.77;;;;;;;-4.17;79.71;101199.31;5040953;28;20558;-63
2022/11/27 04:44:24;;;;;;;16.42;8.45;;;;;;;-4.26;79.46;101204.41;5048492;28;20048;-64
2022/11/27 04:46:49;;;;;;;15.45;8.70;;;;;;;-4.22;79.04;101210.53;5055486;28;20028;-64
2022/11/27 04:49:14;;;;;;;16.60;8.75;;;;;;;-4.26;79.56;101209.63;5044592;28;20044;-64
2022/11/27 04:51:38;;;;;;;15.07;7.88;;;;;;;-4.23;79.40;101217.47;5057750;28;20088;-66
2022/11/27 04:54:03;;;;;;;14.45;7.47;;;;;;;-4.16;79.74;101213.22;5056624;28;20151;-66
2022/11/27 04:56:28;;;;;;;12.43;6.25;;;;;;;-4.12;79.94;101217.63;5055400;28;20051;-65
2022/11/27 04:58:52;;;;;;;16.83;8.63;;;;;;;-3.99;78.49;101216.94;5055234;28;20044;-65
2022/11/27 05:01:17;;;;;;;16.80;9.00;;;;;;;-4.08;78.75;101209.88;5055346;28;20036;-65
2022/11/27 05:03:42;;;;;;;18.95;9.40;;;;;;;-4.17;78.81;101214.06;5055387;28;20443;-67
2022/11/27 05:06:07;;;;;;;15.70;8.73;;;;;;;-4.13;78.85;101221.06;5054956;28;20481;-65
2022/11/27 05:08:32;;;;;;;12.75;7.72;;;;;;;-3.91;78.73;101230.03;5055437;28;20047;-66
2022/11/27 05:11:10;;;;;;;15.52;9.45;;;;;;;-4.07;78.90;101216.84;5055220;28;20040;-66
2022/11/27 05:13:35;;;;;;;15.90;9.50;;;;;;;-4.02;78.35;101219.47;5055347;28;20052;-66
2022/11/27 05:16:00;;;;;;;14.27;9.32;;;;;;;-4.09;78.61;101220.28;5040425;28;20035;-65
2022/11/27 05:18:25;;;;;;;14.25;7.38;;;;;;;-3.96;78.73;101218.69;5030812;28;20465;-65
2022/11/27 05:21:01;;;;;;;18.20;8.88;;;;;;;-4.05;78.87;101215.09;5055357;28;20131;-66
2022/11/27 05:23:27;;;;;;;10.65;5.20;;;;;;;-3.95;78.95;101202.22;5021775;28;20490;-68
2022/11/27 05:25:52;;;;;;;16.60;7.85;;;;;;;-3.94;79.07;101214.34;5037500;28;20058;-65
2022/11/27 05:28:16;;;;;;;11.60;6.68;;;;;;;-3.84;78.38;101208.44;5037559;28;20080;-66
2022/11/27 05:30:41;;;;;;;17.02;8.95;;;;;;;-3.97;78.04;101212.63;5045473;28;20130;-63
2022/11/27 05:33:06;;;;;;;15.27;7.90;;;;;;;-3.99;78.46;101213.44;5060987;28;20414;-63
2022/11/27 05:35:30;;;;;;;16.65;8.43;;;;;;;-3.98;78.59;101212.59;5055522;28;20064;-64
2022/11/27 05:37:55;;;;;;;15.30;8.20;;;;;;;-4.00;78.96;101211.69;5049022;28;20042;-63
2022/11/27 05:40:20;;;;;;;11.23;5.20;;;;;;;-3.86;78.67;101210.13;5042766;28;20035;-63
2022/11/27 05:42:44;;;;;;;14.98;8.05;;;;;;;-3.89;78.63;101210.97;5036861;28;20040;-64
2022/11/27 05:45:09;;;;;;;12.93;7.05;;;;;;;-3.94;78.38;101227.38;5054619;28;20036;-64
2022/11/27 05:47:34;;;;;;;14.10;7.57;;;;;;;-3.90;78.81;101224.84;5057646;28;20050;-66
2022/11/27 05:49:58;;;;;;;15.50;8.80;;;;;;;-3.92;78.54;101217.88;5057043;28;20040;-70
2022/11/27 05:52:23;;;;;;;13.07;7.32;;;;;;;-3.95;79.17;101225.66;5058917;28;20036;-66
2022/11/27 05:54:47;;;;;;;14.13;8.55;;;;;;;-3.82;78.49;101230.13;5054438;28;20040;-66
2022/11/27 05:57:12;;;;;;;14.43;8.15;;;;;;;-3.89;78.83;101230.94;5064342;28;20097;-66
2022/11/27 05:59:37;;;;;;;13.98;8.13;;;;;;;-3.87;79.18;101226.63;5060888;28;20043;-66
2022/11/27 06:02:01;;;;;;;14.55;8.55;;;;;;;-3.88;79.49;101222.28;5064587;28;20051;-67
2022/11/27 06:04:26;;;;;;;17.77;9.60;;;;;;;-3.88;79.13;101230.97;5059632;28;20144;-67
2022/11/27 06:06:51;;;;;;;14.10;7.78;;;;;;;-3.77;79.78;101233.69;5056243;28;20517;-66
2022/11/27 06:09:15;;;;;;;9.77;6.25;;;;;;;-3.51;79.48;101228.78;5056383;28;20039;-65
2022/11/27 06:11:41;;;;;;;10.20;6.45;;;;;;;-3.44;78.85;101226.25;5046764;28;20047;-65
2022/11/27 06:14:09;;;;;;;20.90;9.38;;;;;;;-3.64;78.47;101235.59;5041410;28;20036;-68
2022/11/27 06:16:36;;;;;;;19.02;8.85;;;;;;;-3.74;78.36;101233.75;5055448;28;20131;-66
2022/11/27 06:19:00;;;;;;;12.77;6.35;;;;;;;-3.66;78.42;101230.34;5058758;28;20046;-67
2022/11/27 06:21:25;;;;;;;13.68;8.45;;;;;;;-3.80;79.27;101233.66;5059105;28;20469;-66
2022/11/27 06:23:54;;;;;;;13.27;7.93;;;;;;;-3.81;79.72;101232.78;5045249;28;20032;-67
2022/11/27 06:26:23;;;;;;;16.15;8.27;;;;;;;-3.80;79.87;101231.91;5058892;28;20040;-67
2022/11/27 06:28:48;;;;;;;19.50;9.07;;;;;;;-3.77;79.94;101226.75;5024014;28;20413;-67
2022/11/27 06:31:15;;;;;;;13.60;7.07;;;;;;;-3.49;79.80;101233.13;5040534;28;20444;-67
2022/11/27 06:33:40;;;;;;;18.83;9.43;;;;;;;-3.65;79.29;101241.66;5058365;28;20109;-65
2022/11/27 06:36:06;;;;;;;17.83;8.77;;;;;;;-3.70;79.19;101232.91;5058333;28;20134;-65
2022/11/27 06:38:32;;;;;;;14.00;7.93;;;;;;;-3.59;79.52;101233.00;5023162;28;20092;-64
2022/11/27 06:41:07;;;;;;;12.88;7.13;;;;;;;-3.57;80.04;101240.00;5058161;28;20143;-64
2022/11/27 06:43:33;;;;;;;18.67;7.10;;;;;;;-3.48;80.06;101232.28;5058219;28;20093;-65
2022/11/27 06:45:59;;;;;;;17.10;9.20;;;;;;;-3.41;79.54;101234.13;5048744;28;20043;-65
2022/11/27 06:48:24;;;;;;;16.92;7.65;;;;;;;-3.54;79.41;101239.16;5064111;28;20452;-65
2022/11/27 06:50:48;;;;;;;9.93;5.63;;;;;;;-3.54;79.73;101231.34;5058134;28;20403;-64
2022/11/27 06:53:13;;;;;;;16.08;7.78;;;;;;;-3.56;79.76;101235.66;5052361;28;20501;-65
2022/11/27 06:55:38;;;;;;;8.90;6.05;;;;;;;-3.43;80.10;101243.66;5060283;28;20052;-65
2022/11/27 06:58:02;;;;;;;12.25;6.78;;;;;;;-3.53;79.99;101239.19;5058160;28;20089;-64
2022/11/27 07:00:27;;;;;;;19.10;8.60;;;;;;;-3.63;80.04;101239.94;5058568;28;20035;-65
2022/11/27 07:02:54;;;;;;;18.40;9.32;;;;;;;-3.59;80.41;101246.03;5058480;28;20051;-64
2022/11/27 07:05:18;;;;;;;16.00;8.70;;;;;;;-3.60;80.52;101259.94;5058417;28;20071;-65
2022/11/27 07:07:43;;;;;;;13.23;8.32;;;;;;;-3.61;80.91;101248.63;5063288;28;20066;-64
2022/11/27 07:10:08;;;;;;;8.57;4.65;;;;;;;-3.50;81.04;101254.84;5067890;28;20040;-65
2022/11/27 07:12:32;;;;;;;19.60;9.48;;;;;;;-3.40;80.76;101254.13;5059185;28;20050;-64
2022/11/27 07:14:57;;;;;;;17.83;10.18;;;;;;;-3.49;80.69;101248.78;5049737;28;20114;-65
2022/11/27 07:17:22;;;;;;;11.65;6.53;;;;;;;-3.40;80.95;101251.50;5064379;28;20096;-65
2022/11/27 07:19:46;;;;;;;19.05;9.38;;;;;;;-3.35;81.49;101255.03;5058703;28;20414;-64
2022/11/27 07:22:11;;;;;;;20.33;10.48;;;;;;;-3.38;80.78;101254.09;5039795;28;20044;-65
2022/11/27 07:24:36;;;;;;;14.95;7.85;;;;;;;-3.20;81.07;101262.13;5027262;28;20520;-65
2022/11/27 07:27:00;;;;;;;8.43;5.22;;;;;;;-3.14;80.71;101246.53;5053925;28;20040;-64
2022/11/27 07:29:25;;;;;;;9.65;5.85;;;;;;;-3.16;80.74;101252.63;5057796;28;20040;-65
2022/11/27 07:31:50;;;;;;;11.23;7.25;;;;;;;-3.10;80.35;101247.44;5058375;28;20591;-65
2022/11/27 07:34:16;;;;;;;18.70;9.40;;;;;;;-3.28;80.02;101249.88;5058280;28;20040;-65
2022/11/27 07:36:41;;;;;;;15.32;9.25;;;;;;;-3.30;80.63;101249.88;5057218;28;20502;-65
2022/11/27 07:39:06;;;;;;;15.55;8.57;;;;;;;-3.31;80.91;101254.22;5057610;28;20540;-64
2022/11/27 07:41:30;;;;;;;14.55;9.05;;;;;;;-3.21;80.96;101249.06;5057850;28;20561;-64
2022/11/27 07:43:55;;;;;;;18.17;9.68;;;;;;;-3.13;80.83;101248.28;5057772;28;20044;-64
2022/11/27 07:46:22;;;;;;;14.90;7.70;;;;;;;-2.96;80.40;101248.47;5057773;28;20040;-64
2022/11/27 07:48:47;;;;;;;12.40;8.52;;;;;;;-3.13;80.20;101245.69;5057425;28;20530;-65
2022/11/27 07:51:16;;;;;;;14.77;8.73;;;;;;;-3.21;80.29;101243.84;5057866;28;20509;-65
2022/11/27 07:53:41;;;;;;;9.18;6.75;;;;;;;-3.09;80.53;101246.59;5022235;28;20117;-64
2022/11/27 07:56:07;;;;;;;12.60;8.75;;;;;;;-3.13;80.96;101255.22;5046285;28;20570;-65
2022/11/27 07:58:32;;;;;;;14.63;8.52;;;;;;;-3.01;80.97;101248.41;5063787;28;20078;-65
2022/11/27 08:00:57;;;;;;;19.23;9.77;;;;;;;-2.98;80.94;101253.66;5056773;28;20040;-64
2022/11/27 08:03:23;;;;;;;24.73;11.48;;;;;;;-3.00;81.20;101244.06;5057095;28;20151;-64
2022/11/27 08:05:47;;;;;;;10.75;7.32;;;;;;;-2.84;80.88;101239.84;5053192;28;20048;-64
2022/11/27 08:08:12;;;;;;;17.33;10.68;;;;;;;-2.75;80.54;101245.16;5056765;28;20039;-65
2022/11/27 08:10:38;;;;;;;14.45;7.80;;;;;;;-2.73;80.63;101246.91;5052640;28;20055;-66
2022/11/27 08:13:04;;;;;;;22.08;6.90;;;;;;;-2.54;79.47;101242.69;5047188;28;20069;-64
2022/11/27 08:15:29;;;;;;;18.30;9.93;;;;;;;-2.63;78.67;101237.41;5044743;28;20048;-65
2022/11/27 08:17:54;;;;;;;17.17;9.13;;;;;;;-2.78;79.00;101238.16;5052829;28;20051;-65
2022/11/27 08:20:19;;;;;;;16.85;8.55;;;;;;;-2.87;79.29;101240.69;5056765;28;20059;-65
2022/11/27 08:22:45;;;;;;;15.30;7.05;;;;;;;-2.75;79.70;101243.41;5059108;28;20139;-65
2022/11/27 08:25:10;;;;;;;14.68;8.60;;;;;;;-2.86;79.73;101245.06;5041744;28;20042;-64
2022/11/27 08:27:35;;;;;;;11.52;6.45;;;;;;;-2.74;79.33;101237.34;5036217;28;20036;-65
2022/11/27 08:29:59;;;;;;;16.13;9.50;;;;;;;-2.91;79.56;101236.31;5063162;28;20126;-64
2022/11/27 08:32:24;;;;;;;17.38;9.98;;;;;;;-2.89;79.79;101239.81;5051063;28;20150;-64
2022/11/27 08:34:49;;;;;;;16.55;9.27;;;;;;;-2.88;80.37;101233.72;5047948;28;20044;-64
2022/11/27 08:37:14;;;;;;;17.40;9.43;;;;;;;-2.76;80.39;101236.44;5058969;28;20040;-67
2022/11/27 08:39:38;;;;;;;19.45;8.80;;;;;;;-2.80;80.68;101242.50;5055237;28;20123;-66
2022/11/27 08:42:03;;;;;;;17.45;9.25;;;;;;;-2.78;80.76;101234.69;5055891;28;20040;-70
2022/11/27 08:44:28;;;;;;;17.05;9.55;;;;;;;-2.74;80.99;101236.47;5056262;28;20052;-68
2022/11/27 08:46:52;;;;;;;12.20;8.00;;;;;;;-2.57;80.70;101229.63;5055914;28;20402;-65
2022/11/27 08:49:17;;;;;;;9.35;5.45;;;;;;;-2.51;80.63;101234.91;5056138;28;20525;-64
2022/11/27 08:51:42;;;;;;;16.02;10.07;;;;;;;-2.40;79.83;101221.91;5018056;28;20065;-66
2022/11/27 08:54:07;;;;;;;18.42;8.80;;;;;;;-2.57;80.07;101230.50;5060547;28;20478;-65
2022/11/27 08:56:32;;;;;;;13.45;6.38;;;;;;;-2.50;80.13;101231.41;5052755;28;20509;-65
2022/11/27 08:58:57;;;;;;;18.05;7.68;;;;;;;-2.44;80.63;101246.25;5044063;28;20130;-65
2022/11/27 09:01:26;;;;;;;15.75;8.30;;;;;;;-2.34;80.14;101229.75;5059021;28;20040;-67
2022/11/27 09:03:52;;;;;;;16.98;9.65;;;;;;;-2.38;79.79;101228.03;5059365;28;20134;-66
2022/11/27 09:06:20;;;;;;;15.88;8.07;;;;;;;-2.43;80.02;101240.16;5057547;28;20128;-64
2022/11/27 09:08:47;;;;;;;13.75;8.38;;;;;;;-2.45;80.59;101240.16;5056720;28;20039;-66
2022/11/27 09:11:14;;;;;;;15.30;9.32;;;;;;;-2.38;80.40;101243.69;5056489;28;20032;-64
2022/11/27 09:13:40;;;;;;;18.05;8.85;;;;;;;-2.36;80.48;101234.09;5038517;28;20050;-67
2022/11/27 09:16:09;;;;;;;17.63;9.25;;;;;;;-2.36;80.52;101234.09;5021225;28;20043;-66
2022/11/27 09:18:34;;;;;;;17.02;9.05;;;;;;;-2.25;80.23;101230.69;5038877;28;20383;-65
2022/11/27 09:21:01;;;;;;;21.33;8.85;;;;;;;-2.31;80.43;101235.91;5059088;28;20047;-64
2022/11/27 09:23:27;;;;;;;16.65;8.32;;;;;;;-2.22;80.51;101237.69;5063027;28;20379;-66
2022/11/27 09:25:52;;;;;;;13.02;8.10;;;;;;;-2.16;80.08;101218.56;5067858;28;20063;-68
2022/11/27 09:28:18;;;;;;;15.82;9.07;;;;;;;-2.23;80.34;101230.69;5054771;28;20074;-69
2022/11/27 09:30:43;;;;;;;13.40;7.88;;;;;;;-2.16;80.26;101221.19;5058921;28;20036;-67
2022/11/27 09:33:08;;;;;;;11.70;7.28;;;;;;;-2.19;80.24;101227.25;5055597;28;20047;-66
2022/11/27 09:35:37;;;;;;;16.23;9.48;;;;;;;-2.14;80.20;101219.47;5058393;28;20047;-66
2022/11/27 09:38:02;;;;;;;13.48;7.70;;;;;;;-2.12;80.33;101226.41;5056491;28;20050;-66
2022/11/27 09:40:27;;;;;;;17.15;9.43;;;;;;;-2.06;79.90;101218.63;5056264;28;20070;-67
2022/11/27 09:42:58;;;;;;;12.85;7.78;;;;;;;-1.94;79.78;101223.03;5049369;28;20067;-68
2022/11/27 09:45:25;;;;;;;15.77;8.15;;;;;;;-1.97;79.62;101228.22;5058770;28;20060;-67
2022/11/27 09:47:57;;;;;;;12.40;6.05;;;;;;;-1.88;79.50;101223.91;5031788;28;20092;-67
2022/11/27 09:50:26;;;;;;;17.80;7.93;;;;;;;-1.94;79.42;101220.41;5051895;28;20044;-67
2022/11/27 09:52:56;;;;;;;13.48;7.88;;;;;;;-1.99;79.59;101228.22;5056025;28;20040;-67
2022/11/27 09:55:24;;;;;;;7.60;5.20;;;;;;;-1.79;79.62;101217.84;5055233;28;20140;-67
2022/11/27 09:58:01;;;;;;;16.48;10.15;;;;;;;-1.83;79.54;101216.97;5020205;28;21011;-66
2022/11/27 10:00:25;;;;;;;9.85;5.60;;;;;;;-1.71;79.80;101223.13;5037473;28;20096;-67
2022/11/27 10:02:50;;;;;;;15.02;8.98;;;;;;;-1.69;80.08;101226.63;5022569;28;20035;-67
2022/11/27 10:05:20;;;;;;;12.73;8.10;;;;;;;-1.62;79.70;101225.75;5055931;28;20051;-66
2022/11/27 10:08:20;;;;;;;12.55;5.75;;;;;;;-1.51;79.95;101227.53;5055456;28;20477;-66
2022/11/27 10:10:58;;;;;;;15.05;7.13;;;;;;;-1.48;79.69;101218.84;5054404;28;20790;-67
2022/11/27 10:13:38;;;;;;;15.90;8.13;;;;;;;-1.48;79.11;101224.94;5058367;28;20117;-67
2022/11/27 10:16:14;;;;;;;12.43;7.20;;;;;;;-1.46;79.00;101225.78;5055699;28;20085;-67
2022/11/27 10:18:46;;;;;;;13.45;8.10;;;;;;;-1.51;79.25;101229.28;5057053;28;20449;-67
2022/11/27 10:21:35;;;;;;;14.65;7.47;;;;;;;-1.48;79.36;101224.94;5055823;28;20113;-67
2022/11/27 10:24:26;;;;;;;11.38;7.78;;;;;;;-1.35;79.66;101222.31;5064972;28;20054;-66
2022/11/27 10:26:58;;;;;;;11.45;6.47;;;;;;;-1.34;79.20;101219.72;5056174;28;20111;-67
2022/11/27 10:29:40;;;;;;;15.40;7.43;;;;;;;-1.32;79.56;101222.34;5054852;28;20056;-67
2022/11/27 10:32:14;;;;;;;12.60;8.63;;;;;;;-1.20;78.69;101217.13;5042720;28;20114;-69
2022/11/27 10:34:54;;;;;;;11.20;6.57;;;;;;;-1.10;79.03;101219.75;5062174;28;20051;-67
2022/11/27 10:37:38;;;;;;;11.45;7.40;;;;;;;-1.21;78.66;101218.00;5044021;28;20077;-70
2022/11/27 10:40:12;;;;;;;11.38;7.47;;;;;;;-1.19;78.64;101222.38;5058792;28;20046;-69
2022/11/27 10:42:57;;;;;;;11.77;7.60;;;;;;;-1.04;77.99;101215.41;5045174;28;20525;-66
2022/11/27 10:45:42;;;;;;;16.70;7.13;;;;;;;-1.04;77.95;101223.28;5056654;28;20067;-66
2022/11/27 10:48:09;;;;;;;11.02;6.75;;;;;;;-0.99;77.08;101225.00;5054337;28;20127;-68
2022/11/27 10:50:33;;;;;;;12.27;7.57;;;;;;;-1.17;76.99;101214.53;5050324;28;20048;-66
2022/11/27 10:53:03;;;;;;;11.25;6.40;;;;;;;-1.14;77.70;101215.41;5029292;28;20066;-68
2022/11/27 10:55:56;;;;;;;10.23;5.43;;;;;;;-0.96;77.99;101221.53;5057774;28;20115;-68
2022/11/27 10:58:40;;;;;;;13.25;7.85;;;;;;;-1.03;77.38;101222.41;5036303;28;20127;-66
2022/11/27 11:01:15;;;;;;;10.75;6.45;;;;;;;-1.04;77.58;101232.00;5054397;28;20048;-68
2022/11/27 11:03:40;;;;;;;8.80;5.35;;;;;;;-0.89;77.07;101218.03;5056221;28;20398;-67
2022/11/27 11:06:14;;;;;;;9.63;6.15;;;;;;;-0.75;75.69;101221.53;5039816;28;20050;-67
2022/11/27 11:08:39;;;;;;;15.50;8.13;;;;;;;-0.95;75.18;101225.88;5057997;28;20498;-67
2022/11/27 11:11:07;;;;;;;15.25;8.07;;;;;;;-1.03;75.17;101222.41;5057649;28;20414;-70
2022/11/27 11:13:33;;;;;;;12.40;6.25;;;;;;;-1.02;75.42;101222.41;5039322;28;20044;-66
2022/11/27 11:16:03;;;;;;;14.90;8.65;;;;;;;-1.10;74.67;101227.63;5057652;28;20497;-65
2022/11/27 11:18:34;;;;;;;11.75;6.28;;;;;;;-1.03;74.12;101211.94;5058115;28;20040;-66
2022/11/27 11:21:03;;;;;;;15.52;8.20;;;;;;;-1.14;74.08;101227.63;5057602;28;20497;-66
2022/11/27 11:23:37;;;;;;;13.02;7.63;;;;;;;-1.04;73.59;101223.28;5063178;28;20511;-66